Time;durP1;ratioP1;P1;durP2;ratioP2;P2;SDS_P1;SDS_P2;PMS_P1;PMS_P2;Temp;Humidity;BMP_temperature;BMP_pressure;BME280_temperature;BME280_humidity;BME280_pressure;Samples;Min_cycle;Max_cycle;Signal;HPM_P1;HPM_P2
2022/07/18 00:00:32;;;;;;;8.35;3.72;;;;;;;;;;5084015;28;20047;-64
2022/07/18 00:03:00;;;;;;;6.93;3.83;;;;;;;;;;5075146;28;20522;-64
2022/07/18 00:05:27;;;;;;;6.43;3.50;;;;;;;;;;5064731;28;20052;-64
2022/07/18 00:07:54;;;;;;;9.00;3.60;;;;;;;;;;5077798;28;20082;-64
2022/07/18 00:10:22;;;;;;;5.88;3.78;;;;;;;;;;5078715;28;20125;-64
2022/07/18 00:12:49;;;;;;;6.40;3.70;;;;;;;;;;5080096;28;20093;-64
2022/07/18 00:15:17;;;;;;;5.90;3.83;;;;;;;;;;5075190;28;20040;-64
2022/07/18 00:17:46;;;;;;;8.23;3.67;;;;;;;;;;5078632;28;20806;-64
2022/07/18 00:20:13;;;;;;;7.50;3.90;;;;;;;;;;5080269;28;20117;-64
2022/07/18 00:22:40;;;;;;;6.85;3.70;;;;;;;;;;5081753;28;20052;-64
2022/07/18 00:25:08;;;;;;;5.57;3.65;;;;;;;;;;5081258;28;20056;-64
2022/07/18 00:27:35;;;;;;;5.60;3.60;;;;;;;;;;5081233;28;20455;-64
2022/07/18 00:30:02;;;;;;;5.35;3.40;;;;;;;;;;5064124;28;20056;-64
2022/07/18 00:32:29;;;;;;;6.97;3.80;;;;;;;;;;5077959;28;20041;-64
2022/07/18 00:34:58;;;;;;;9.25;3.83;;;;;;;;;;5077879;28;20051;-65
2022/07/18 00:37:25;;;;;;;5.72;3.55;;;;;;;;;;5076606;28;20041;-64
2022/07/18 00:39:52;;;;;;;7.80;3.72;;;;;;;;;;5081226;28;20052;-64
2022/07/18 00:42:19;;;;;;;8.07;3.70;;;;;;;;;;5077153;28;20078;-64
2022/07/18 00:44:47;;;;;;;6.93;3.80;;;;;;;;;;5079994;28;20056;-64
2022/07/18 00:47:14;;;;;;;8.93;3.65;;;;;;;;;;5051235;28;20440;-64
2022/07/18 00:49:41;;;;;;;4.95;3.58;;;;;;;;;;5076966;28;20126;-64
2022/07/18 00:52:10;;;;;;;7.55;3.80;;;;;;;;;;5078327;28;20097;-64
2022/07/18 00:54:37;;;;;;;7.88;3.80;;;;;;;;;;5078042;28;20085;-64
2022/07/18 00:57:04;;;;;;;6.28;4.00;;;;;;;;;;5074281;28;20129;-64
2022/07/18 01:02:16;;;;;;;6.40;4.10;;;;;;;;;;5040614;28;20186;-64
2022/07/18 01:04:44;;;;;;;5.47;3.72;;;;;;;;;;5041102;28;20422;-64
2022/07/18 01:07:12;;;;;;;7.10;3.83;;;;;;;;;;5039582;28;20044;-64
2022/07/18 01:09:40;;;;;;;7.22;4.50;;;;;;;;;;5040695;28;20037;-64
2022/07/18 01:12:07;;;;;;;7.07;3.95;;;;;;;;;;5039170;28;20046;-64
2022/07/18 01:14:35;;;;;;;7.38;3.80;;;;;;;;;;5040645;28;20654;-64
2022/07/18 01:17:02;;;;;;;6.35;4.30;;;;;;;;;;5039931;28;20053;-64
2022/07/18 01:19:29;;;;;;;5.93;4.10;;;;;;;;;;5040717;28;20071;-64
2022/07/18 01:21:58;;;;;;;8.77;4.78;;;;;;;;;;5042692;28;20045;-64
2022/07/18 01:24:25;;;;;;;6.93;4.13;;;;;;;;;;5039980;28;20050;-64
2022/07/18 01:26:52;;;;;;;7.57;4.60;;;;;;;;;;5038314;28;20053;-64
2022/07/18 01:29:19;;;;;;;11.15;4.68;;;;;;;;;;5034099;28;20045;-64
2022/07/18 01:31:46;;;;;;;8.48;4.40;;;;;;;;;;5033369;28;20057;-64
2022/07/18 01:34:14;;;;;;;8.52;4.50;;;;;;;;;;5032519;28;20112;-64
2022/07/18 01:36:41;;;;;;;11.63;4.63;;;;;;;;;;5042282;28;20057;-64
2022/07/18 01:39:09;;;;;;;7.32;4.70;;;;;;;;;;5040979;28;20056;-64
2022/07/18 01:41:37;;;;;;;10.02;4.78;;;;;;;;;;5042341;28;20045;-64
2022/07/18 01:44:04;;;;;;;6.47;4.38;;;;;;;;;;5040871;28;20706;-64
2022/07/18 01:46:31;;;;;;;6.88;4.35;;;;;;;;;;5041997;28;20072;-64
2022/07/18 01:48:58;;;;;;;9.77;5.03;;;;;;;;;;5041838;28;20875;-64
2022/07/18 01:51:26;;;;;;;8.30;5.40;;;;;;;;;;5039066;28;20116;-64
2022/07/18 01:53:59;;;;;;;8.90;4.80;;;;;;;;;;5039765;28;20064;-64
2022/07/18 01:56:26;;;;;;;;;;;;;;;;;;5040406;28;20045;-64
2022/07/18 01:58:54;;;;;;;10.30;5.68;;;;;;;;;;5039830;28;19979;-64
2022/07/18 02:01:21;;;;;;;6.20;4.43;;;;;;;;;;5048594;28;20049;-64
2022/07/18 02:03:49;;;;;;;8.85;4.90;;;;;;;;;;5078288;28;20494;-64
2022/07/18 02:06:16;;;;;;;6.07;4.53;;;;;;;;;;5079488;28;20043;-64
2022/07/18 02:08:43;;;;;;;7.28;4.90;;;;;;;;;;5079343;28;20059;-64
2022/07/18 02:11:10;;;;;;;7.10;5.18;;;;;;;;;;5081114;28;20118;-64
2022/07/18 02:13:37;;;;;;;7.28;4.97;;;;;;;;;;5070802;28;20155;-64
2022/07/18 02:16:06;;;;;;;9.85;5.43;;;;;;;;;;5075141;28;20052;-64
2022/07/18 02:18:35;;;;;;;8.15;5.80;;;;;;;;;;5079053;28;20075;-64
2022/07/18 02:21:02;;;;;;;8.70;5.70;;;;;;;;;;5078080;28;20044;-64
2022/07/18 02:23:29;;;;;;;8.85;5.55;;;;;;;;;;5080065;28;20457;-64
2022/07/18 02:25:56;;;;;;;8.88;5.78;;;;;;;;;;5060912;28;20098;-64
2022/07/18 02:28:24;;;;;;;7.80;5.07;;;;;;;;;;5080900;28;20040;-64
2022/07/18 02:30:51;;;;;;;8.63;6.05;;;;;;;;;;5074999;28;20052;-64
2022/07/18 02:33:20;;;;;;;8.38;5.75;;;;;;;;;;5076489;28;20044;-64
2022/07/18 02:35:47;;;;;;;10.00;5.82;;;;;;;;;;5053275;28;20064;-64
2022/07/18 02:38:14;;;;;;;7.65;5.70;;;;;;;;;;5079202;28;20044;-64
2022/07/18 02:40:41;;;;;;;8.00;5.75;;;;;;;;;;5078879;28;20048;-64
2022/07/18 02:43:08;;;;;;;9.38;6.00;;;;;;;;;;5072958;28;20048;-64
2022/07/18 02:45:36;;;;;;;13.95;5.75;;;;;;;;;;5066953;28;20489;-64
2022/07/18 02:48:03;;;;;;;6.75;5.70;;;;;;;;;;5077569;28;20113;-64
2022/07/18 02:50:31;;;;;;;12.02;5.80;;;;;;;;;;5076936;28;20106;-64
2022/07/18 02:52:58;;;;;;;8.27;5.78;;;;;;;;;;5051664;28;20052;-64
2022/07/18 02:55:26;;;;;;;10.13;5.82;;;;;;;;;;5062203;28;20105;-64
2022/07/18 02:57:53;;;;;;;10.88;6.22;;;;;;;;;;5076685;28;20060;-64
2022/07/18 03:00:20;;;;;;;10.23;6.30;;;;;;;;;;5056173;28;20055;-64
2022/07/18 03:02:47;;;;;;;10.32;6.70;;;;;;;;;;5054948;28;20106;-64
2022/07/18 03:05:15;;;;;;;9.48;6.55;;;;;;;;;;5050786;28;20054;-64
2022/07/18 03:07:43;;;;;;;10.05;6.65;;;;;;;;;;5054201;28;20041;-64
2022/07/18 03:10:11;;;;;;;10.18;6.20;;;;;;;;;;5059864;28;20557;-64
2022/07/18 03:12:38;;;;;;;11.88;6.28;;;;;;;;;;5053116;28;20744;-65
2022/07/18 03:15:05;;;;;;;9.55;6.63;;;;;;;;;;5052264;28;20054;-64
2022/07/18 03:17:33;;;;;;;11.35;6.80;;;;;;;;;;5059138;28;20061;-64
2022/07/18 03:20:00;;;;;;;8.55;5.93;;;;;;;;;;5055725;28;20053;-64
2022/07/18 03:22:27;;;;;;;10.23;6.50;;;;;;;;;;5057406;28;20052;-64
2022/07/18 03:24:56;;;;;;;10.45;6.35;;;;;;;;;;5056974;28;20518;-64
2022/07/18 03:27:23;;;;;;;10.90;6.80;;;;;;;;;;5048084;28;20044;-64
2022/07/18 03:29:50;;;;;;;10.50;6.32;;;;;;;;;;5054681;28;20535;-64
2022/07/18 03:32:17;;;;;;;18.33;6.43;;;;;;;;;;5056951;28;20102;-64
2022/07/18 03:34:44;;;;;;;8.60;6.15;;;;;;;;;;5053080;28;20052;-64
2022/07/18 03:37:12;;;;;;;10.23;6.40;;;;;;;;;;5050128;28;20052;-64
2022/07/18 03:39:39;;;;;;;9.50;6.28;;;;;;;;;;5051527;28;20121;-64
2022/07/18 03:42:07;;;;;;;10.73;6.20;;;;;;;;;;5058705;28;20049;-64
2022/07/18 03:44:35;;;;;;;8.82;5.97;;;;;;;;;;5053259;28;20511;-64
2022/07/18 03:47:02;;;;;;;9.55;5.72;;;;;;;;;;5054130;28;20045;-64
2022/07/18 03:49:29;;;;;;;10.85;6.30;;;;;;;;;;5051587;28;20052;-64
2022/07/18 03:51:56;;;;;;;11.85;6.43;;;;;;;;;;5058677;28;20040;-64
2022/07/18 03:54:24;;;;;;;10.50;6.53;;;;;;;;;;5052109;28;20057;-64
2022/07/18 03:56:51;;;;;;;11.60;6.43;;;;;;;;;;5050721;28;20710;-64
2022/07/18 03:59:20;;;;;;;8.35;5.78;;;;;;;;;;5056368;28;20044;-64
2022/07/18 04:01:47;;;;;;;10.60;6.13;;;;;;;;;;5061781;28;20075;-65
2022/07/18 04:04:14;;;;;;;12.20;5.95;;;;;;;;;;5075172;28;20420;-64
2022/07/18 04:06:41;;;;;;;9.52;5.82;;;;;;;;;;5054375;28;20051;-64
2022/07/18 04:09:09;;;;;;;9.65;6.65;;;;;;;;;;5072364;28;20044;-64
2022/07/18 04:11:36;;;;;;;8.25;6.32;;;;;;;;;;5061620;28;20117;-64
2022/07/18 04:14:03;;;;;;;9.45;5.80;;;;;;;;;;5069557;28;20437;-64
2022/07/18 04:16:32;;;;;;;7.88;5.90;;;;;;;;;;5073655;28;20036;-64
2022/07/18 04:18:59;;;;;;;8.57;5.93;;;;;;;;;;5073443;28;20491;-64
2022/07/18 04:21:26;;;;;;;9.43;5.82;;;;;;;;;;5076518;28;20052;-64
2022/07/18 04:23:53;;;;;;;11.45;5.97;;;;;;;;;;5077534;28;20047;-64
2022/07/18 04:26:21;;;;;;;12.35;6.50;;;;;;;;;;5060402;28;20135;-65
2022/07/18 04:28:49;;;;;;;7.65;5.93;;;;;;;;;;5057551;28;20075;-64
2022/07/18 04:31:16;;;;;;;11.57;6.30;;;;;;;;;;5059405;28;20109;-64
2022/07/18 04:33:44;;;;;;;10.73;6.35;;;;;;;;;;5071697;28;20051;-64
2022/07/18 04:36:12;;;;;;;11.05;6.30;;;;;;;;;;5060084;28;20106;-64
2022/07/18 04:38:39;;;;;;;10.18;6.00;;;;;;;;;;5076131;28;20059;-64
2022/07/18 04:41:07;;;;;;;10.77;6.07;;;;;;;;;;5083169;28;20044;-64
2022/07/18 04:43:34;;;;;;;12.52;5.65;;;;;;;;;;5076953;28;20056;-64
2022/07/18 04:46:01;;;;;;;13.75;6.10;;;;;;;;;;5079690;28;20051;-64
2022/07/18 04:48:29;;;;;;;11.43;5.95;;;;;;;;;;5083549;28;20052;-64
2022/07/18 04:50:57;;;;;;;9.80;5.75;;;;;;;;;;5073931;28;20048;-64
2022/07/18 04:53:25;;;;;;;8.20;5.50;;;;;;;;;;5080646;28;20112;-64
2022/07/18 04:55:52;;;;;;;8.70;5.80;;;;;;;;;;5059739;28;20093;-64
2022/07/18 04:58:19;;;;;;;10.25;5.88;;;;;;;;;;5080180;28;20117;-64
2022/07/18 05:00:46;;;;;;;8.73;5.57;;;;;;;;;;5074908;28;20105;-64
2022/07/18 05:03:15;;;;;;;10.18;5.85;;;;;;;;;;5079288;28;20048;-64
2022/07/18 05:05:42;;;;;;;8.65;6.00;;;;;;;;;;5073936;28;20101;-64
2022/07/18 05:08:11;;;;;;;12.23;5.63;;;;;;;;;;5079564;28;20052;-64
2022/07/18 05:10:39;;;;;;;8.68;5.43;;;;;;;;;;5065599;28;20499;-64
2022/07/18 05:13:06;;;;;;;11.77;5.97;;;;;;;;;;5079897;28;20043;-64
2022/07/18 05:15:33;;;;;;;8.55;5.47;;;;;;;;;;5075105;28;20086;-65
2022/07/18 05:18:00;;;;;;;12.45;5.35;;;;;;;;;;5075167;28;20499;-64
2022/07/18 05:20:28;;;;;;;8.57;4.88;;;;;;;;;;5075636;28;20117;-64
2022/07/18 05:22:55;;;;;;;8.25;4.78;;;;;;;;;;5078624;28;20047;-64
2022/07/18 05:25:24;;;;;;;10.55;4.50;;;;;;;;;;5076685;28;20044;-64
2022/07/18 05:27:51;;;;;;;9.85;4.53;;;;;;;;;;5058542;28;20121;-64
2022/07/18 05:30:19;;;;;;;7.63;4.80;;;;;;;;;;5082327;28;20044;-65
2022/07/18 05:32:47;;;;;;;8.77;4.82;;;;;;;;;;5077481;28;20047;-64
2022/07/18 05:35:14;;;;;;;7.18;4.47;;;;;;;;;;5060639;28;20068;-64
2022/07/18 05:37:42;;;;;;;10.85;4.43;;;;;;;;;;5075692;28;20457;-64
2022/07/18 05:40:10;;;;;;;9.63;4.50;;;;;;;;;;5079111;28;20101;-64
2022/07/18 05:42:39;;;;;;;10.73;4.20;;;;;;;;;;5061750;28;20049;-64
2022/07/18 05:45:06;;;;;;;8.75;4.50;;;;;;;;;;5062829;28;20054;-64
2022/07/18 05:47:33;;;;;;;7.65;4.32;;;;;;;;;;5079215;28;20097;-64
2022/07/18 05:50:01;;;;;;;6.20;4.10;;;;;;;;;;5077612;28;20445;-64
2022/07/18 05:52:28;;;;;;;11.70;4.22;;;;;;;;;;5072649;28;20056;-64
2022/07/18 05:54:55;;;;;;;7.53;4.00;;;;;;;;;;5078395;28;20055;-64
2022/07/18 05:57:22;;;;;;;10.35;3.90;;;;;;;;;;5081700;28;20044;-65
2022/07/18 05:59:51;;;;;;;7.72;3.67;;;;;;;;;;5083402;28;20120;-64
2022/07/18 06:02:18;;;;;;;9.80;4.22;;;;;;;;;;5074974;28;20052;-64
2022/07/18 06:04:45;;;;;;;6.97;4.03;;;;;;;;;;5072943;28;20685;-64
2022/07/18 06:07:12;;;;;;;9.15;4.07;;;;;;;;;;5076850;28;20040;-64
2022/07/18 06:09:40;;;;;;;10.43;3.90;;;;;;;;;;5080097;28;20124;-64
2022/07/18 06:12:07;;;;;;;10.85;4.00;;;;;;;;;;5076211;28;20055;-64
2022/07/18 06:14:35;;;;;;;10.73;4.00;;;;;;;;;;5076084;28;20067;-64
2022/07/18 06:17:03;;;;;;;9.40;3.70;;;;;;;;;;5074762;28;20054;-64
2022/07/18 06:19:30;;;;;;;10.65;3.92;;;;;;;;;;5077304;28;20059;-64
2022/07/18 06:21:59;;;;;;;8.75;4.25;;;;;;;;;;5073576;28;20525;-64
2022/07/18 06:24:26;;;;;;;12.93;4.20;;;;;;;;;;5072791;28;20048;-65
2022/07/18 06:26:53;;;;;;;9.15;4.00;;;;;;;;;;5076119;28;20105;-64
2022/07/18 06:29:20;;;;;;;8.73;3.47;;;;;;;;;;5078172;28;20058;-65
2022/07/18 06:31:47;;;;;;;12.80;4.18;;;;;;;;;;5055654;28;20491;-64
2022/07/18 06:34:16;;;;;;;11.70;3.90;;;;;;;;;;5081744;28;20056;-65
2022/07/18 06:36:44;;;;;;;10.02;3.80;;;;;;;;;;5058669;28;20051;-65
2022/07/18 06:39:12;;;;;;;9.93;3.83;;;;;;;;;;5067716;28;20102;-64
2022/07/18 06:41:39;;;;;;;8.73;3.58;;;;;;;;;;5078095;28;20167;-64
2022/07/18 06:44:07;;;;;;;9.60;3.83;;;;;;;;;;5057776;28;20146;-64
2022/07/18 06:46:36;;;;;;;7.03;3.55;;;;;;;;;;5080296;28;20093;-65
2022/07/18 06:49:03;;;;;;;7.05;3.92;;;;;;;;;;5068647;28;20060;-64
2022/07/18 06:51:32;;;;;;;13.13;3.47;;;;;;;;;;5082746;28;20047;-64
2022/07/18 06:53:59;;;;;;;6.43;3.30;;;;;;;;;;5056438;28;21630;-65
2022/07/18 06:56:26;;;;;;;8.30;3.53;;;;;;;;;;5078198;28;20040;-65
2022/07/18 06:58:54;;;;;;;5.25;3.20;;;;;;;;;;5078377;28;20052;-65
2022/07/18 07:01:22;;;;;;;8.02;3.35;;;;;;;;;;5080661;28;20486;-64
2022/07/18 07:03:49;;;;;;;7.47;3.65;;;;;;;;;;5075567;28;20079;-64
2022/07/18 07:06:16;;;;;;;10.55;3.83;;;;;;;;;;5079404;28;20040;-65
2022/07/18 07:08:45;;;;;;;7.70;3.00;;;;;;;;;;5082131;28;20435;-65
2022/07/18 07:11:13;;;;;;;7.22;3.13;;;;;;;;;;5079013;28;20032;-64
2022/07/18 07:13:40;;;;;;;12.27;3.35;;;;;;;;;;5079217;28;20052;-64
2022/07/18 07:16:07;;;;;;;6.15;2.90;;;;;;;;;;5058032;28;20052;-65
2022/07/18 07:18:34;;;;;;;5.32;2.92;;;;;;;;;;5081359;28;20293;-65
2022/07/18 07:21:01;;;;;;;7.22;2.97;;;;;;;;;;5081007;28;20101;-65
2022/07/18 07:23:29;;;;;;;8.60;2.90;;;;;;;;;;5071331;28;20048;-64
2022/07/18 07:25:57;;;;;;;7.07;2.97;;;;;;;;;;5080248;28;20518;-65
2022/07/18 07:28:25;;;;;;;7.50;2.92;;;;;;;;;;5073983;28;20044;-65
2022/07/18 07:30:52;;;;;;;8.90;3.00;;;;;;;;;;5074305;28;20109;-65
2022/07/18 07:33:19;;;;;;;8.43;3.15;;;;;;;;;;5077670;28;20480;-65
2022/07/18 07:35:46;;;;;;;4.95;2.60;;;;;;;;;;5058346;28;20048;-64
2022/07/18 07:38:18;;;;;;;5.70;2.78;;;;;;;;;;5056554;28;20064;-65
2022/07/18 07:40:45;;;;;;;6.05;2.75;;;;;;;;;;5056618;28;20048;-64
2022/07/18 07:43:14;;;;;;;5.10;2.80;;;;;;;;;;5076578;28;20059;-64
2022/07/18 07:45:41;;;;;;;7.97;2.65;;;;;;;;;;5078466;28;20044;-64
2022/07/18 07:48:09;;;;;;;5.95;2.47;;;;;;;;;;5056967;28;20096;-65
2022/07/18 07:50:36;;;;;;;7.47;2.70;;;;;;;;;;5071223;28;20113;-64
2022/07/18 07:53:03;;;;;;;8.93;2.90;;;;;;;;;;5052682;28;20048;-65
2022/07/18 07:55:31;;;;;;;5.18;2.90;;;;;;;;;;5077602;28;20101;-64
2022/07/18 07:57:58;;;;;;;9.18;3.33;;;;;;;;;;5056047;28;20091;-65
2022/07/18 08:00:27;;;;;;;6.15;2.80;;;;;;;;;;5072167;28;20052;-64
2022/07/18 08:02:55;;;;;;;13.98;2.97;;;;;;;;;;5071622;28;20450;-65
2022/07/18 08:05:22;;;;;;;11.35;2.80;;;;;;;;;;5078027;28;20059;-64
2022/07/18 08:07:50;;;;;;;7.35;2.97;;;;;;;;;;5074829;28;20048;-64
2022/07/18 08:10:17;;;;;;;7.65;3.05;;;;;;;;;;5075311;28;20048;-65
2022/07/18 08:12:44;;;;;;;7.15;2.70;;;;;;;;;;5080014;28;20048;-65
2022/07/18 08:15:12;;;;;;;14.15;3.17;;;;;;;;;;5081145;28;20611;-64
2022/07/18 08:17:40;;;;;;;7.75;2.78;;;;;;;;;;5077261;28;20044;-65
2022/07/18 08:20:08;;;;;;;6.03;2.63;;;;;;;;;;5074984;28;21237;-65
2022/07/18 08:22:35;;;;;;;8.27;2.53;;;;;;;;;;5081666;28;20589;-64
2022/07/18 08:25:03;;;;;;;11.00;2.90;;;;;;;;;;5074677;28;20043;-64
2022/07/18 08:27:30;;;;;;;7.22;2.75;;;;;;;;;;5076098;28;20049;-65
2022/07/18 08:29:58;;;;;;;7.57;2.88;;;;;;;;;;5060311;28;20056;-64
2022/07/18 08:32:25;;;;;;;10.32;2.85;;;;;;;;;;5076210;28;20036;-65
2022/07/18 08:34:53;;;;;;;6.97;2.50;;;;;;;;;;5072554;28;20075;-65
2022/07/18 08:37:21;;;;;;;9.88;2.70;;;;;;;;;;5080912;28;20191;-65
2022/07/18 08:39:48;;;;;;;6.40;2.35;;;;;;;;;;5082962;28;20440;-65
2022/07/18 08:42:17;;;;;;;7.07;2.20;;;;;;;;;;5077732;28;20048;-65
2022/07/18 08:44:44;;;;;;;5.38;2.53;;;;;;;;;;5079221;28;20047;-65
2022/07/18 08:47:13;;;;;;;10.50;2.55;;;;;;;;;;5062326;28;20495;-65
2022/07/18 08:49:40;;;;;;;6.28;2.33;;;;;;;;;;5081243;28;20087;-64
2022/07/18 08:52:09;;;;;;;10.90;2.50;;;;;;;;;;5079745;28;20101;-65
2022/07/18 08:54:37;;;;;;;8.05;2.85;;;;;;;;;;5076462;28;20633;-64
2022/07/18 08:57:04;;;;;;;5.63;2.33;;;;;;;;;;5081044;28;20048;-65
2022/07/18 08:59:31;;;;;;;4.70;2.15;;;;;;;;;;5064737;28;20109;-64
2022/07/18 09:01:59;;;;;;;6.07;2.20;;;;;;;;;;5081903;28;20506;-65
2022/07/18 09:04:36;;;;;;;7.13;2.40;;;;;;;;;;5079972;28;20063;-65
2022/07/18 09:07:04;;;;;;;5.90;2.00;;;;;;;;;;5074909;28;20101;-64
2022/07/18 09:09:33;;;;;;;9.50;2.60;;;;;;;;;;5078606;28;20052;-65
2022/07/18 09:12:01;;;;;;;5.20;2.40;;;;;;;;;;5075020;28;20045;-65
2022/07/18 09:14:29;;;;;;;5.70;2.17;;;;;;;;;;5079923;28;20679;-65
2022/07/18 09:17:01;;;;;;;6.45;2.05;;;;;;;;;;5080415;28;20052;-64
2022/07/18 09:19:28;;;;;;;9.63;2.22;;;;;;;;;;5082184;28;20055;-65
2022/07/18 09:21:56;;;;;;;6.78;2.03;;;;;;;;;;5078820;28;20109;-65
2022/07/18 09:24:23;;;;;;;8.70;2.25;;;;;;;;;;5081090;28;20410;-65
2022/07/18 09:26:52;;;;;;;9.43;2.00;;;;;;;;;;5079714;28;20832;-65
2022/07/18 09:29:20;;;;;;;7.03;2.28;;;;;;;;;;5078222;28;20617;-65
2022/07/18 09:31:50;;;;;;;6.68;2.08;;;;;;;;;;5077341;28;20052;-65
2022/07/18 09:34:33;;;;;;;6.40;2.35;;;;;;;;;;5058777;28;20700;-65
2022/07/18 09:37:00;;;;;;;;;;;;;;;;;;5074150;28;20108;-65
2022/07/18 09:39:27;;;;;;;6.38;2.20;;;;;;;;;;5078329;28;19931;-65
2022/07/18 09:42:13;;;;;;;7.00;1.98;;;;;;;;;;5080021;28;20532;-65
2022/07/18 09:44:41;;;;;;;7.45;2.28;;;;;;;;;;5055982;28;20117;-65
2022/07/18 09:47:08;;;;;;;5.07;2.17;;;;;;;;;;5060438;28;20052;-64
2022/07/18 09:49:36;;;;;;;4.28;1.92;;;;;;;;;;5077101;28;20049;-65
2022/07/18 09:52:07;;;;;;;5.80;2.33;;;;;;;;;;5078466;28;20422;-65
2022/07/18 09:54:38;;;;;;;6.40;2.13;;;;;;;;;;5081314;28;20048;-65
2022/07/18 09:57:07;;;;;;;10.95;2.70;;;;;;;;;;5073283;28;20802;-65
2022/07/18 09:59:34;;;;;;;5.60;1.88;;;;;;;;;;5075337;28;20108;-65
2022/07/18 10:02:01;;;;;;;5.75;1.98;;;;;;;;;;5071714;28;20048;-65
2022/07/18 10:04:29;;;;;;;6.78;2.40;;;;;;;;;;5073500;28;20430;-65
2022/07/18 10:06:56;;;;;;;6.05;1.90;;;;;;;;;;5060340;28;20052;-64
2022/07/18 10:09:23;;;;;;;4.78;2.70;;;;;;;;;;5073698;28;20071;-65
2022/07/18 10:11:50;;;;;;;7.80;2.50;;;;;;;;;;5076739;28;20044;-64
2022/07/18 10:14:19;;;;;;;6.82;2.10;;;;;;;;;;5073151;28;20052;-65
2022/07/18 10:16:46;;;;;;;4.63;2.38;;;;;;;;;;5067599;28;20086;-66
2022/07/18 10:19:13;;;;;;;7.90;2.50;;;;;;;;;;5077018;28;20044;-65
2022/07/18 10:21:42;;;;;;;8.05;2.67;;;;;;;;;;5079972;28;20497;-65
2022/07/18 10:24:10;;;;;;;8.25;2.67;;;;;;;;;;5078131;28;20059;-65
2022/07/18 10:26:37;;;;;;;6.10;2.50;;;;;;;;;;5076571;28;20062;-65
2022/07/18 10:29:11;;;;;;;5.28;2.60;;;;;;;;;;5073160;28;20048;-65
2022/07/18 10:31:42;;;;;;;8.52;2.85;;;;;;;;;;5072669;28;20510;-65
2022/07/18 10:34:13;;;;;;;5.40;2.70;;;;;;;;;;5075366;28;20059;-65
2022/07/18 10:36:41;;;;;;;4.70;2.38;;;;;;;;;;5054266;28;20056;-65
2022/07/18 10:39:09;;;;;;;5.47;2.75;;;;;;;;;;5069989;28;20461;-65
2022/07/18 10:41:52;;;;;;;6.40;2.63;;;;;;;;;;5076882;28;20199;-65
2022/07/18 10:44:34;;;;;;;9.13;2.47;;;;;;;;;;5081209;28;20071;-65
2022/07/18 10:47:08;;;;;;;7.57;2.85;;;;;;;;;;5081256;28;20090;-66
2022/07/18 10:49:56;;;;;;;4.35;2.47;;;;;;;;;;5073266;28;20127;-65
2022/07/18 10:52:38;;;;;;;9.15;2.67;;;;;;;;;;5073720;28;20044;-66
2022/07/18 10:55:24;;;;;;;7.88;2.40;;;;;;;;;;5076459;28;20044;-66
2022/07/18 10:58:06;;;;;;;7.55;2.80;;;;;;;;;;5073128;28;20713;-65
2022/07/18 11:00:36;;;;;;;8.00;3.03;;;;;;;;;;5060301;28;20083;-65
2022/07/18 11:03:06;;;;;;;6.82;3.22;;;;;;;;;;5071755;28;20051;-65
2022/07/18 11:05:35;;;;;;;6.47;3.20;;;;;;;;;;5073674;28;20067;-65
2022/07/18 11:08:19;;;;;;;8.27;3.22;;;;;;;;;;5074562;28;20159;-66
2022/07/18 11:11:16;;;;;;;4.60;2.75;;;;;;;;;;5072354;28;20044;-65
2022/07/18 11:13:48;;;;;;;4.85;2.78;;;;;;;;;;5033915;28;20059;-65
2022/07/18 11:16:16;;;;;;;6.25;2.90;;;;;;;;;;5074871;28;20696;-65
2022/07/18 11:19:02;;;;;;;6.70;2.38;;;;;;;;;;5080470;28;20098;-65
2022/07/18 11:21:31;;;;;;;6.63;2.63;;;;;;;;;;5071633;28;20044;-65
2022/07/18 11:24:01;;;;;;;4.65;2.47;;;;;;;;;;5078134;28;20055;-65
2022/07/18 11:26:28;;;;;;;8.18;2.53;;;;;;;;;;5068706;28;20048;-66
2022/07/18 11:28:58;;;;;;;8.57;2.50;;;;;;;;;;5075129;28;20044;-65
2022/07/18 11:31:25;;;;;;;4.13;1.90;;;;;;;;;;5072224;28;20493;-65
2022/07/18 11:33:52;;;;;;;6.47;2.10;;;;;;;;;;5074193;28;20085;-65
2022/07/18 11:36:21;;;;;;;6.28;1.95;;;;;;;;;;5069394;28;20048;-65
2022/07/18 11:38:51;;;;;;;6.78;2.15;;;;;;;;;;5074987;28;20121;-65
2022/07/18 11:41:19;;;;;;;4.43;2.00;;;;;;;;;;5070303;28;20400;-65
2022/07/18 11:43:47;;;;;;;5.35;2.00;;;;;;;;;;5076583;28;20101;-65
2022/07/18 11:46:15;;;;;;;6.20;2.22;;;;;;;;;;5075833;28;20036;-65
2022/07/18 11:48:42;;;;;;;4.45;2.20;;;;;;;;;;5084494;28;20211;-66
2022/07/18 11:51:10;;;;;;;5.65;2.10;;;;;;;;;;5071079;28;20044;-65
2022/07/18 11:53:37;;;;;;;6.25;2.20;;;;;;;;;;5075013;28;20110;-65
2022/07/18 11:56:06;;;;;;;6.22;2.20;;;;;;;;;;5065218;28;20447;-65
2022/07/18 11:58:37;;;;;;;6.50;2.38;;;;;;;;;;5085592;28;20044;-65
2022/07/18 12:01:05;;;;;;;6.30;2.20;;;;;;;;;;5077964;28;20083;-66
2022/07/18 12:03:32;;;;;;;4.15;2.28;;;;;;;;;;5065025;28;20052;-65
2022/07/18 12:05:59;;;;;;;4.05;2.17;;;;;;;;;;5077617;28;20058;-66
2022/07/18 12:08:34;;;;;;;4.47;2.42;;;;;;;;;;5074829;28;20110;-65
2022/07/18 12:11:07;;;;;;;5.30;2.50;;;;;;;;;;5080859;28;20052;-66
2022/07/18 12:13:41;;;;;;;8.18;2.60;;;;;;;;;;5074718;28;20708;-66
2022/07/18 12:16:08;;;;;;;5.35;2.55;;;;;;;;;;5081113;28;20044;-66
2022/07/18 12:18:35;;;;;;;7.55;2.80;;;;;;;;;;5072326;28;20048;-66
2022/07/18 12:21:09;;;;;;;6.60;2.88;;;;;;;;;;5073514;28;20051;-66
2022/07/18 12:23:36;;;;;;;7.35;3.22;;;;;;;;;;5079493;28;20048;-66
2022/07/18 12:26:03;;;;;;;6.00;2.85;;;;;;;;;;5053768;28;20053;-66
2022/07/18 12:28:32;;;;;;;6.95;3.38;;;;;;;;;;5084176;28;20048;-66
2022/07/18 12:30:59;;;;;;;10.05;3.05;;;;;;;;;;5078209;28;20051;-66
2022/07/18 12:33:27;;;;;;;6.25;2.80;;;;;;;;;;5079052;28;20058;-66
2022/07/18 12:35:58;;;;;;;6.43;3.03;;;;;;;;;;5084627;28;20051;-66
2022/07/18 12:38:25;;;;;;;5.47;3.28;;;;;;;;;;5082475;28;20044;-65
2022/07/18 12:40:54;;;;;;;9.18;3.42;;;;;;;;;;5062958;28;20060;-64
2022/07/18 12:43:24;;;;;;;6.03;3.10;;;;;;;;;;5081907;28;20052;-65
2022/07/18 12:45:53;;;;;;;5.22;2.67;;;;;;;;;;5084189;28;20589;-64
2022/07/18 12:48:21;;;;;;;8.10;2.90;;;;;;;;;;5076526;28;20048;-64
2022/07/18 12:50:56;;;;;;;7.22;3.08;;;;;;;;;;5078303;28;20048;-65
2022/07/18 12:53:23;;;;;;;5.03;3.15;;;;;;;;;;5075811;28;20059;-65
2022/07/18 12:55:50;;;;;;;6.43;3.38;;;;;;;;;;5076278;28;20074;-65
2022/07/18 12:58:18;;;;;;;8.13;3.00;;;;;;;;;;5081611;28;20109;-65
2022/07/18 13:00:45;;;;;;;5.88;3.08;;;;;;;;;;5079719;28;20044;-65
2022/07/18 13:03:13;;;;;;;7.53;3.38;;;;;;;;;;5057457;28;20056;-64
2022/07/18 13:05:41;;;;;;;7.20;3.10;;;;;;;;;;5071689;28;20546;-64
2022/07/18 13:08:10;;;;;;;10.85;3.40;;;;;;;;;;5079208;28;20055;-65
2022/07/18 13:10:37;;;;;;;5.35;2.90;;;;;;;;;;5065542;28;21437;-65
2022/07/18 13:13:05;;;;;;;6.30;2.80;;;;;;;;;;5073963;28;20644;-65
2022/07/18 13:15:32;;;;;;;5.88;2.90;;;;;;;;;;5081363;28;20109;-66
2022/07/18 13:17:59;;;;;;;7.38;3.38;;;;;;;;;;5081156;28;20070;-65
2022/07/18 13:20:30;;;;;;;6.15;2.95;;;;;;;;;;5057522;28;20059;-65
2022/07/18 13:23:01;;;;;;;4.63;3.00;;;;;;;;;;5076465;28;20048;-65
2022/07/18 13:25:28;;;;;;;4.63;3.25;;;;;;;;;;5073427;28;20047;-66
2022/07/18 13:27:55;;;;;;;7.10;3.20;;;;;;;;;;5080806;28;20051;-65
2022/07/18 13:30:22;;;;;;;8.32;3.28;;;;;;;;;;5081834;28;20492;-65
2022/07/18 13:32:50;;;;;;;6.20;3.00;;;;;;;;;;5080101;28;20097;-65
2022/07/18 13:35:17;;;;;;;5.80;3.05;;;;;;;;;;5073592;28;20109;-65
2022/07/18 13:37:46;;;;;;;4.38;3.20;;;;;;;;;;5067544;28;20045;-65
2022/07/18 13:40:14;;;;;;;6.13;2.78;;;;;;;;;;5074708;28;20093;-65
2022/07/18 13:42:41;;;;;;;5.28;3.30;;;;;;;;;;5074374;28;20059;-65
2022/07/18 13:45:09;;;;;;;8.20;3.20;;;;;;;;;;5078648;28;20295;-65
2022/07/18 13:47:37;;;;;;;7.00;3.50;;;;;;;;;;5074262;28;20047;-64
2022/07/18 13:50:06;;;;;;;4.57;3.55;;;;;;;;;;5074547;28;20056;-65
2022/07/18 13:52:33;;;;;;;7.40;3.70;;;;;;;;;;5076791;28;20050;-65
2022/07/18 13:55:01;;;;;;;7.85;3.42;;;;;;;;;;5074945;28;20113;-65
2022/07/18 13:57:28;;;;;;;4.00;3.45;;;;;;;;;;5079324;28;20432;-65
2022/07/18 13:59:56;;;;;;;4.57;3.78;;;;;;;;;;5075094;28;20177;-64
2022/07/18 14:02:23;;;;;;;9.00;3.70;;;;;;;;;;5059348;28;20056;-64
2022/07/18 14:04:50;;;;;;;5.00;3.17;;;;;;;;;;5075796;28;20044;-64
2022/07/18 14:07:18;;;;;;;4.60;3.10;;;;;;;;;;5080612;28;20048;-65
2022/07/18 14:09:46;;;;;;;6.60;3.00;;;;;;;;;;5081484;28;20177;-65
2022/07/18 14:12:14;;;;;;;4.55;3.13;;;;;;;;;;5076804;28;20052;-65
2022/07/18 14:14:42;;;;;;;9.18;3.80;;;;;;;;;;5081499;28;20056;-65
2022/07/18 14:17:09;;;;;;;4.18;3.28;;;;;;;;;;5079286;28;20680;-65
2022/07/18 14:19:36;;;;;;;5.00;3.95;;;;;;;;;;5076115;28;20387;-65
2022/07/18 14:22:04;;;;;;;4.93;3.58;;;;;;;;;;5077679;28;20052;-65
2022/07/18 14:24:31;;;;;;;7.45;3.55;;;;;;;;;;5078821;28;20040;-66
2022/07/18 14:26:58;;;;;;;4.30;3.42;;;;;;;;;;5070175;28;20448;-65
2022/07/18 14:29:27;;;;;;;5.55;3.45;;;;;;;;;;5059399;28;20048;-65
2022/07/18 14:31:54;;;;;;;5.55;3.58;;;;;;;;;;5076737;28;20081;-65
2022/07/18 14:34:21;;;;;;;5.55;3.17;;;;;;;;;;5062938;28;20542;-65
2022/07/18 14:36:48;;;;;;;3.60;3.30;;;;;;;;;;5076831;28;20101;-65
2022/07/18 14:39:15;;;;;;;4.90;3.30;;;;;;;;;;5072369;28;20052;-65
2022/07/18 14:41:45;;;;;;;4.53;3.40;;;;;;;;;;5078201;28;20052;-65
2022/07/18 14:44:12;;;;;;;4.03;3.63;;;;;;;;;;5079790;28;20123;-65
2022/07/18 14:46:40;;;;;;;4.55;3.40;;;;;;;;;;5074787;28;20052;-65
2022/07/18 14:49:07;;;;;;;3.85;3.45;;;;;;;;;;5075105;28;20056;-65